Time;durP1;ratioP1;P1;durP2;ratioP2;P2;SDS_P1;SDS_P2;PMS_P1;PMS_P2;Temp;Humidity;BMP_temperature;BMP_pressure;BME280_temperature;BME280_humidity;BME280_pressure;Samples;Min_cycle;Max_cycle;Signal;HPM_P1;HPM_P2
2022/12/24 00:00:05;;;;;;;2.30;0.70;;;11.00;99.90;;;;;;5072499;28;20435;-80
2022/12/24 00:02:31;;;;;;;2.47;0.70;;;11.00;99.90;;;;;;5054486;28;20660;-79
2022/12/24 00:04:56;;;;;;;1.73;0.80;;;11.00;99.90;;;;;;5037899;28;20438;-79
2022/12/24 00:07:22;;;;;;;3.27;0.80;;;10.90;99.90;;;;;;5037860;28;20216;-79
2022/12/24 00:09:48;;;;;;;3.17;1.50;;;11.00;99.90;;;;;;5054375;28;20182;-78
2022/12/24 00:12:13;;;;;;;2.40;1.00;;;10.90;99.90;;;;;;5037367;28;20240;-80
2022/12/24 00:14:39;;;;;;;3.73;0.83;;;11.00;99.90;;;;;;5053842;28;20207;-79
2022/12/24 00:17:04;;;;;;;2.10;1.00;;;10.90;99.90;;;;;;5037355;28;20183;-79
2022/12/24 00:19:30;;;;;;;3.93;0.87;;;10.90;99.90;;;;;;5071828;28;20208;-83
2022/12/24 00:21:56;;;;;;;8.50;2.00;;;10.90;99.90;;;;;;5054719;28;20271;-83
2022/12/24 00:24:21;;;;;;;8.73;1.30;;;11.00;99.90;;;;;;5021212;28;20203;-82
2022/12/24 00:26:47;;;;;;;1.80;0.90;;;11.00;99.90;;;;;;5037450;28;20199;-82
2022/12/24 00:29:12;;;;;;;2.83;0.90;;;11.00;99.90;;;;;;5021139;28;20264;-83
2022/12/24 00:31:38;;;;;;;3.20;1.00;;;11.20;99.90;;;;;;5038037;28;20196;-82
2022/12/24 00:34:03;;;;;;;2.93;0.97;;;11.10;99.90;;;;;;5022514;28;20200;-83
2022/12/24 00:36:29;;;;;;;10.23;1.10;;;11.10;99.90;;;;;;5023411;28;20188;-82
2022/12/24 00:38:54;;;;;;;5.07;1.30;;;11.00;99.90;;;;;;5039136;28;20216;-84
2022/12/24 00:41:23;;;;;;;1.87;0.90;;;11.10;99.90;;;;;;5039469;28;20188;-83
2022/12/24 00:43:52;;;;;;;8.23;0.90;;;11.20;99.90;;;;;;5057792;28;20201;-83
2022/12/24 00:46:18;;;;;;;3.83;0.83;;;11.10;99.90;;;;;;5057353;28;20431;-85
2022/12/24 00:48:44;;;;;;;4.40;1.00;;;11.00;99.90;;;;;;5055542;28;20432;-82
2022/12/24 00:51:09;;;;;;;3.50;1.10;;;11.10;99.90;;;;;;5056107;28;20242;-83
2022/12/24 00:53:35;;;;;;;2.80;1.10;;;11.20;99.90;;;;;;5038434;28;20211;-82
2022/12/24 00:56:00;;;;;;;3.40;1.07;;;11.00;99.90;;;;;;5039062;28;20187;-83
2022/12/24 00:58:26;;;;;;;4.97;1.20;;;11.10;99.90;;;;;;5054901;28;20245;-83
2022/12/24 01:00:51;;;;;;;6.57;1.30;;;10.90;99.90;;;;;;5021707;28;20222;-83
2022/12/24 01:03:17;;;;;;;13.93;1.43;;;10.90;99.90;;;;;;5021923;28;20214;-82
2022/12/24 01:05:43;;;;;;;6.80;1.03;;;11.20;99.90;;;;;;5021335;28;20187;-82
2022/12/24 01:08:08;;;;;;;7.13;1.63;;;11.10;99.90;;;;;;5021823;28;20192;-83
2022/12/24 01:10:34;;;;;;;3.80;0.80;;;11.20;99.90;;;;;;5036196;28;20192;-81
2022/12/24 01:13:01;;;;;;;4.47;1.37;;;11.10;99.90;;;;;;5052844;28;20307;-80
2022/12/24 01:15:28;;;;;;;4.50;1.00;;;11.10;99.90;;;;;;5071481;28;20184;-81
2022/12/24 01:17:53;;;;;;;2.10;1.30;;;11.30;99.90;;;;;;5054964;28;20484;-79
2022/12/24 01:20:19;;;;;;;2.10;1.00;;;11.10;99.90;;;;;;5054939;28;20432;-79
2022/12/24 01:22:45;;;;;;;6.70;1.30;;;11.10;99.90;;;;;;5038891;28;20228;-80
2022/12/24 01:25:11;;;;;;;5.43;1.03;;;11.10;99.90;;;;;;5038891;28;20200;-77
2022/12/24 01:27:37;;;;;;;4.90;1.43;;;11.00;99.90;;;;;;5054324;28;20447;-78
2022/12/24 01:30:06;;;;;;;4.70;1.50;;;11.00;99.90;;;;;;5054824;28;20432;-83
2022/12/24 01:32:32;;;;;;;2.10;1.00;;;11.00;99.90;;;;;;5040563;28;20790;-83
2022/12/24 01:34:58;;;;;;;5.43;1.90;;;11.00;99.90;;;;;;5057713;28;20488;-84
2022/12/24 01:37:25;;;;;;;7.70;1.30;;;11.10;99.90;;;;;;5025362;28;20264;-83
2022/12/24 01:43:22;;;;;;;9.17;2.97;;;11.00;99.90;;;;;;5042197;28;20837;-85
2022/12/24 01:45:40;;;;;;;5.13;1.10;;;11.10;99.90;;;;;;5060063;28;20445;-83
2022/12/24 01:48:21;;;;;;;7.07;1.50;;;11.10;99.90;;;;;;5056528;28;20576;-83
2022/12/24 01:50:50;;;;;;;6.73;1.10;;;11.20;99.90;;;;;;5056399;28;20425;-83
2022/12/24 01:53:16;;;;;;;10.80;1.23;;;11.10;99.90;;;;;;5056542;28;20432;-84
2022/12/24 01:55:44;;;;;;;9.57;1.47;;;11.20;99.90;;;;;;5055872;28;20418;-84
2022/12/24 01:58:12;;;;;;;5.80;1.33;;;11.10;99.90;;;;;;5056389;28;20483;-85
2022/12/24 02:00:38;;;;;;;6.23;1.40;;;11.30;99.90;;;;;;5056346;28;20564;-85
2022/12/24 02:03:03;;;;;;;3.47;1.20;;;11.30;99.90;;;;;;5024090;28;20476;-84
2022/12/24 02:05:52;;;;;;;8.70;1.60;;;11.10;99.90;;;;;;5039837;28;20183;-83
2022/12/24 02:08:18;;;;;;;7.63;1.17;;;11.20;99.90;;;;;;5074076;28;20407;-83
2022/12/24 02:10:48;;;;;;;9.00;1.87;;;11.20;99.90;;;;;;5039485;28;20461;-83
2022/12/24 02:13:17;;;;;;;7.43;1.43;;;11.30;99.90;;;;;;5056352;28;20983;-84
2022/12/24 02:15:48;;;;;;;7.90;1.20;;;11.00;99.90;;;;;;5073949;28;20760;-84
2022/12/24 02:18:45;;;;;;;11.37;1.80;;;11.10;99.90;;;;;;5056002;28;20452;-84
2022/12/24 02:21:43;;;;;;;4.23;1.60;;;11.10;99.90;;;;;;5032319;28;20431;-80
2022/12/24 02:24:50;;;;;;;12.20;1.70;;;11.00;99.90;;;;;;5052818;28;20433;-82
2022/12/24 02:27:25;;;;;;;12.63;1.70;;;11.10;99.90;;;;;;5073414;28;20436;-82
2022/12/24 02:30:02;;;;;;;7.10;1.13;;;11.10;99.90;;;;;;5056734;28;20423;-83
2022/12/24 02:32:50;;;;;;;3.03;1.63;;;11.10;99.90;;;;;;5073365;28;20410;-82
2022/12/24 02:35:37;;;;;;;5.20;1.40;;;11.00;99.90;;;;;;5051469;28;20434;-82
2022/12/24 02:38:15;;;;;;;6.77;1.57;;;11.00;99.90;;;;;;5051163;28;20474;-79
2022/12/24 02:40:48;;;;;;;7.60;1.23;;;10.90;99.90;;;;;;5050882;28;20425;-78
2022/12/24 02:43:22;;;;;;;2.57;1.10;;;11.00;99.90;;;;;;5069219;28;20440;-79
2022/12/24 02:45:55;;;;;;;3.13;1.20;;;10.90;99.90;;;;;;5070111;28;20758;-79
2022/12/24 02:48:23;;;;;;;2.47;1.23;;;10.90;99.90;;;;;;5052295;28;20427;-78
2022/12/24 02:50:57;;;;;;;6.60;1.83;;;11.10;99.90;;;;;;5052616;28;20440;-78
2022/12/24 02:53:23;;;;;;;4.70;1.53;;;10.90;99.90;;;;;;5051986;28;20906;-79
2022/12/24 02:56:13;;;;;;;3.60;1.43;;;10.90;99.90;;;;;;5019262;28;20430;-79
2022/12/24 02:59:10;;;;;;;5.50;1.40;;;10.80;99.90;;;;;;5069308;28;20309;-80
2022/12/24 03:02:11;;;;;;;6.50;1.40;;;10.90;99.90;;;;;;5051235;28;20439;-79
2022/12/24 03:05:18;;;;;;;10.63;1.20;;;10.90;99.90;;;;;;5051683;28;20448;-80
2022/12/24 03:08:17;;;;;;;8.90;1.50;;;10.90;99.90;;;;;;5072684;28;21062;-81
2022/12/24 03:11:03;;;;;;;4.93;1.30;;;10.90;99.90;;;;;;5042954;28;20448;-79
2022/12/24 03:13:29;;;;;;;3.87;1.43;;;10.90;99.90;;;;;;5074075;28;20429;-81
2022/12/24 03:15:54;;;;;;;5.13;1.40;;;10.90;99.90;;;;;;5022151;28;20436;-79
2022/12/24 03:18:24;;;;;;;7.00;1.77;;;10.90;99.90;;;;;;5073653;28;20212;-81
2022/12/24 03:20:59;;;;;;;7.70;1.53;;;10.90;99.90;;;;;;5073755;28;20903;-80
2022/12/24 03:23:25;;;;;;;8.57;1.87;;;10.90;99.90;;;;;;5059286;28;20805;-83
2022/12/24 03:25:51;;;;;;;4.40;1.20;;;10.80;99.90;;;;;;5076845;28;20417;-84
2022/12/24 03:28:18;;;;;;;6.50;1.20;;;10.90;99.90;;;;;;5058841;28;20421;-81
2022/12/24 03:30:47;;;;;;;7.33;1.70;;;10.90;99.90;;;;;;5056506;28;20223;-82
2022/12/24 03:33:13;;;;;;;12.53;1.77;;;11.00;99.90;;;;;;5038040;28;20476;-82
2022/12/24 03:35:39;;;;;;;5.37;1.30;;;10.80;99.90;;;;;;5054735;28;20424;-81
2022/12/24 03:38:05;;;;;;;6.73;1.43;;;10.80;99.90;;;;;;5038339;28;20883;-81
2022/12/24 03:40:30;;;;;;;4.70;1.80;;;10.80;99.90;;;;;;5054860;28;20187;-82
2022/12/24 03:42:56;;;;;;;6.70;1.40;;;10.70;99.90;;;;;;5040064;28;20582;-84
2022/12/24 03:45:22;;;;;;;10.53;1.77;;;10.80;99.90;;;;;;5057219;28;20195;-83
2022/12/24 03:47:47;;;;;;;5.13;1.47;;;10.90;99.90;;;;;;5024071;28;20184;-83
2022/12/24 03:50:13;;;;;;;6.10;1.80;;;10.70;99.90;;;;;;5040710;28;20221;-83
2022/12/24 03:52:38;;;;;;;5.47;1.30;;;10.70;99.90;;;;;;5074471;28;20187;-82
2022/12/24 03:55:04;;;;;;;6.40;1.30;;;10.70;99.90;;;;;;5038995;28;20260;-82
2022/12/24 03:57:30;;;;;;;6.57;1.67;;;10.70;99.90;;;;;;5073778;28;20218;-83
2022/12/24 03:59:56;;;;;;;4.50;1.30;;;10.70;99.90;;;;;;5038964;28;21131;-81
2022/12/24 04:02:21;;;;;;;7.17;1.13;;;10.70;99.90;;;;;;5038707;28;20181;-81
2022/12/24 04:04:50;;;;;;;12.53;1.67;;;10.70;99.90;;;;;;5056729;28;20206;-83
2022/12/24 04:07:16;;;;;;;9.23;1.70;;;10.90;99.90;;;;;;5041412;28;20301;-82
2022/12/24 04:09:41;;;;;;;9.67;2.67;;;10.60;99.90;;;;;;5054637;28;20504;-79
2022/12/24 04:12:07;;;;;;;9.83;1.87;;;10.80;99.90;;;;;;5054847;28;20195;-78
2022/12/24 04:14:32;;;;;;;5.03;1.60;;;10.80;99.90;;;;;;5054828;28;20229;-79
2022/12/24 04:16:58;;;;;;;7.77;1.97;;;10.80;99.90;;;;;;5054100;28;20196;-79
2022/12/24 04:19:24;;;;;;;9.20;1.37;;;11.00;99.90;;;;;;5038236;28;20309;-81
2022/12/24 04:21:49;;;;;;;8.60;1.77;;;10.80;99.90;;;;;;5055226;28;20417;-80
2022/12/24 04:24:15;;;;;;;11.17;2.27;;;10.80;99.90;;;;;;5037957;28;20203;-80
2022/12/24 04:26:41;;;;;;;5.80;1.30;;;10.80;99.90;;;;;;5021199;28;20202;-81
2022/12/24 04:29:06;;;;;;;9.50;1.97;;;10.80;99.90;;;;;;5054573;28;20196;-84
2022/12/24 04:31:32;;;;;;;7.90;1.67;;;10.80;99.90;;;;;;5037436;28;20194;-82
2022/12/24 04:33:58;;;;;;;3.10;1.70;;;11.00;99.90;;;;;;5071878;28;20221;-81
2022/12/24 04:36:23;;;;;;;10.40;1.70;;;10.80;99.90;;;;;;5020835;28;20189;-79
2022/12/24 04:38:49;;;;;;;6.70;1.53;;;10.80;99.90;;;;;;5037257;28;20207;-80
2022/12/24 04:41:18;;;;;;;7.23;1.53;;;10.90;99.90;;;;;;5071971;28;20202;-80
2022/12/24 04:43:44;;;;;;;5.00;1.30;;;10.80;99.90;;;;;;5054280;28;20197;-79
2022/12/24 04:46:16;;;;;;;5.83;1.63;;;10.70;99.90;;;;;;5053367;28;20789;-79
2022/12/24 04:48:43;;;;;;;6.17;2.20;;;10.80;99.90;;;;;;5053774;28;20440;-79
2022/12/24 04:51:09;;;;;;;5.13;1.63;;;10.70;99.90;;;;;;5037441;28;20580;-80
2022/12/24 04:53:36;;;;;;;3.87;1.80;;;10.70;99.90;;;;;;5037106;28;21036;-80
2022/12/24 04:56:02;;;;;;;9.33;1.57;;;10.60;99.90;;;;;;5056472;28;20428;-83
2022/12/24 04:58:28;;;;;;;5.60;1.37;;;10.80;99.90;;;;;;5039152;28;20517;-82
2022/12/24 05:00:53;;;;;;;4.60;1.60;;;10.60;99.90;;;;;;5039403;28;20454;-82
2022/12/24 05:03:19;;;;;;;34.23;13.70;;;10.70;99.90;;;;;;5021566;28;21304;-83
2022/12/24 05:05:46;;;;;;;7.47;2.00;;;10.70;99.90;;;;;;5073202;28;20415;-83
2022/12/24 05:08:12;;;;;;;12.30;1.97;;;10.60;99.90;;;;;;5037643;28;20192;-79
2022/12/24 05:10:38;;;;;;;6.87;1.80;;;10.60;99.90;;;;;;5053554;28;20425;-80
2022/12/24 05:13:04;;;;;;;7.53;1.40;;;10.60;99.90;;;;;;5036968;28;20452;-79
2022/12/24 05:15:29;;;;;;;5.50;1.40;;;10.60;99.90;;;;;;5053385;28;20188;-78
2022/12/24 05:17:57;;;;;;;4.20;1.17;;;10.60;99.90;;;;;;5036729;28;20840;-78
2022/12/24 05:20:22;;;;;;;6.37;1.50;;;10.70;99.90;;;;;;5037255;28;20191;-77
2022/12/24 05:28:20;;;;;;;6.87;1.73;;;10.70;99.90;;;;;;5070255;28;20991;-78
2022/12/24 05:30:46;;;;;;;3.77;1.33;;;10.80;99.90;;;;;;5052310;28;20435;-80
2022/12/24 05:33:12;;;;;;;5.23;1.43;;;10.80;99.90;;;;;;5019265;28;20297;-79
2022/12/24 05:35:37;;;;;;;3.33;1.50;;;10.70;99.90;;;;;;5070308;28;20208;-79
2022/12/24 05:38:03;;;;;;;4.57;1.37;;;10.80;99.90;;;;;;5035752;28;20240;-79
2022/12/24 05:40:28;;;;;;;6.97;1.90;;;10.80;99.90;;;;;;5036237;28;20207;-81
2022/12/24 05:42:54;;;;;;;5.33;1.10;;;10.70;99.90;;;;;;5053372;28;20197;-82
2022/12/24 05:45:19;;;;;;;13.10;1.67;;;10.70;99.90;;;;;;5039530;28;20377;-82
2022/12/24 05:47:45;;;;;;;10.37;3.10;;;10.60;99.90;;;;;;5037810;28;20193;-81
2022/12/24 05:50:11;;;;;;;4.90;1.90;;;10.60;99.90;;;;;;5071814;28;20650;-80
2022/12/24 05:52:37;;;;;;;5.40;1.40;;;10.50;99.90;;;;;;5070735;28;20192;-81
2022/12/24 05:55:03;;;;;;;8.70;1.70;;;10.60;99.90;;;;;;5053143;28;20917;-81
2022/12/24 05:57:28;;;;;;;9.70;3.83;;;10.50;99.90;;;;;;5052608;28;20235;-81
2022/12/24 05:59:54;;;;;;;5.33;1.13;;;10.60;99.90;;;;;;5036089;28;20236;-81
2022/12/24 06:02:19;;;;;;;6.67;1.50;;;10.40;99.90;;;;;;5080282;28;20196;-77
2022/12/24 06:04:45;;;;;;;7.70;1.80;;;10.40;99.90;;;;;;5072435;28;20204;-79
2022/12/24 06:07:11;;;;;;;5.83;1.63;;;10.50;99.90;;;;;;5036926;28;20183;-76
2022/12/24 06:09:36;;;;;;;10.00;1.93;;;10.40;99.90;;;;;;5073572;28;20606;-76
2022/12/24 06:12:02;;;;;;;4.57;1.40;;;10.40;99.90;;;;;;5053396;28;20183;-77
2022/12/24 06:14:27;;;;;;;7.73;2.90;;;10.30;99.90;;;;;;5070428;28;20683;-78
2022/12/24 06:16:53;;;;;;;6.17;1.77;;;10.40;99.90;;;;;;5051768;28;20615;-78
2022/12/24 06:19:18;;;;;;;8.20;1.50;;;10.30;99.90;;;;;;5069791;28;20232;-78
2022/12/24 06:21:44;;;;;;;7.00;1.50;;;10.30;99.90;;;;;;5052022;28;20214;-81
2022/12/24 06:24:10;;;;;;;6.73;1.60;;;10.30;99.90;;;;;;5036348;28;20209;-78
2022/12/24 06:26:35;;;;;;;7.50;2.00;;;10.40;99.90;;;;;;5051645;28;20276;-77
2022/12/24 06:29:01;;;;;;;9.90;1.60;;;10.30;99.90;;;;;;5069703;28;20182;-77
2022/12/24 06:31:26;;;;;;;2.97;1.00;;;10.20;99.90;;;;;;5052126;28;20283;-77
2022/12/24 06:33:52;;;;;;;11.47;1.60;;;10.20;99.90;;;;;;5053556;28;20214;-78
2022/12/24 06:36:23;;;;;;;11.10;1.67;;;10.20;99.90;;;;;;5073371;28;20641;-76
2022/12/24 06:38:49;;;;;;;3.07;1.57;;;10.20;99.90;;;;;;5054807;28;20266;-78
2022/12/24 06:41:16;;;;;;;8.90;1.80;;;10.30;99.90;;;;;;5077497;28;20937;-75
2022/12/24 06:43:46;;;;;;;5.00;1.63;;;10.20;99.90;;;;;;5077518;28;21163;-78
2022/12/24 06:46:12;;;;;;;3.87;1.37;;;10.20;99.90;;;;;;5060653;28;20563;-76
2022/12/24 06:48:38;;;;;;;8.73;2.10;;;10.10;99.90;;;;;;5079741;28;20533;-77
2022/12/24 06:51:04;;;;;;;6.40;2.40;;;10.20;99.90;;;;;;5078091;28;20535;-78
2022/12/24 06:53:30;;;;;;;13.20;2.17;;;10.20;99.90;;;;;;5077446;28;20201;-77
2022/12/24 06:56:02;;;;;;;5.33;1.30;;;10.20;99.90;;;;;;5078443;28;21023;-77
2022/12/24 06:58:28;;;;;;;7.93;1.70;;;10.20;99.90;;;;;;5078710;28;20465;-77
2022/12/24 07:00:53;;;;;;;3.87;1.60;;;10.20;99.90;;;;;;5078203;28;20421;-75
2022/12/24 07:03:19;;;;;;;5.60;2.17;;;10.30;99.90;;;;;;5058764;28;20198;-76
2022/12/24 07:05:44;;;;;;;7.97;2.17;;;10.10;99.90;;;;;;5076528;28;20189;-77
2022/12/24 07:08:10;;;;;;;10.60;2.23;;;10.10;99.90;;;;;;5077521;28;20192;-76
2022/12/24 07:10:35;;;;;;;4.40;1.70;;;10.00;99.90;;;;;;5076622;28;20567;-76
2022/12/24 07:13:01;;;;;;;7.60;1.23;;;10.10;99.90;;;;;;5058439;28;20211;-77
2022/12/24 07:15:26;;;;;;;7.90;1.67;;;10.10;99.90;;;;;;5077401;28;20213;-77
2022/12/24 07:17:52;;;;;;;13.53;2.17;;;10.10;99.90;;;;;;5077140;28;20644;-79
2022/12/24 07:20:18;;;;;;;5.33;1.70;;;10.20;99.90;;;;;;5077157;28;20189;-77
2022/12/24 07:22:43;;;;;;;9.63;1.70;;;10.20;99.90;;;;;;5058620;28;20259;-77
2022/12/24 07:25:10;;;;;;;8.50;2.17;;;10.10;99.90;;;;;;5076150;28;20255;-76
2022/12/24 07:27:36;;;;;;;7.10;1.33;;;10.20;99.90;;;;;;5077209;28;20276;-78
2022/12/24 07:30:03;;;;;;;13.90;2.00;;;10.20;99.90;;;;;;5060730;28;20461;-77
2022/12/24 07:32:28;;;;;;;8.93;2.00;;;10.20;99.90;;;;;;5077252;28;20667;-77
2022/12/24 07:34:54;;;;;;;13.27;1.90;;;10.20;99.90;;;;;;5042065;28;20478;-76
2022/12/24 07:37:19;;;;;;;7.13;1.67;;;10.20;99.90;;;;;;5076893;28;20203;-77
2022/12/24 07:39:45;;;;;;;5.80;1.77;;;10.20;99.90;;;;;;5043710;28;20234;-77
2022/12/24 07:42:11;;;;;;;5.17;2.10;;;10.20;99.90;;;;;;5043859;28;20183;-78
2022/12/24 07:44:36;;;;;;;11.30;2.10;;;10.30;99.90;;;;;;5060373;28;20229;-77
2022/12/24 07:47:02;;;;;;;11.00;2.60;;;10.30;99.90;;;;;;5060648;28;20605;-76
2022/12/24 07:49:27;;;;;;;7.30;1.60;;;10.30;99.90;;;;;;5059168;28;20263;-76
2022/12/24 07:51:53;;;;;;;8.93;1.60;;;10.30;99.90;;;;;;5074234;28;20276;-76
2022/12/24 07:54:19;;;;;;;11.80;2.00;;;10.20;99.90;;;;;;5055383;28;20310;-77
2022/12/24 07:56:44;;;;;;;8.97;2.10;;;10.30;99.90;;;;;;5056842;28;20626;-77
2022/12/24 07:59:12;;;;;;;11.70;2.10;;;10.20;99.90;;;;;;5087842;28;20214;-73
2022/12/24 08:01:37;;;;;;;7.47;2.20;;;10.20;99.90;;;;;;5097966;28;20167;-74
2022/12/24 08:04:03;;;;;;;7.27;1.50;;;10.30;99.90;;;;;;5098195;28;20454;-75
2022/12/24 08:06:29;;;;;;;7.23;2.20;;;10.30;99.90;;;;;;5063918;28;20219;-74
2022/12/24 08:08:55;;;;;;;4.50;1.50;;;10.30;99.90;;;;;;5083030;28;20681;-77
2022/12/24 08:11:20;;;;;;;9.00;1.90;;;10.30;99.90;;;;;;5054871;28;20191;-76
2022/12/24 08:13:46;;;;;;;7.97;2.37;;;10.30;99.90;;;;;;5054531;28;20446;-76
2022/12/24 08:16:11;;;;;;;14.70;1.70;;;10.30;99.90;;;;;;5054118;28;20192;-77
2022/12/24 08:18:37;;;;;;;8.50;2.20;;;10.30;99.90;;;;;;5072579;28;20212;-78
2022/12/24 08:21:06;;;;;;;11.13;2.80;;;10.40;99.90;;;;;;5073113;28;20185;-77
2022/12/24 08:23:32;;;;;;;5.23;1.50;;;10.40;99.90;;;;;;5073025;28;20203;-77
2022/12/24 08:25:57;;;;;;;9.37;1.83;;;10.40;99.90;;;;;;5072612;28;20414;-77
2022/12/24 08:28:23;;;;;;;9.60;2.00;;;10.40;99.90;;;;;;5055805;28;20558;-76
2022/12/24 08:30:50;;;;;;;16.47;2.87;;;10.40;99.90;;;;;;5074051;28;20191;-77
2022/12/24 08:33:16;;;;;;;10.03;1.90;;;10.50;99.90;;;;;;5074104;28;20239;-78
2022/12/24 08:35:49;;;;;;;6.67;1.60;;;10.40;99.90;;;;;;5056230;28;20429;-77
2022/12/24 08:38:15;;;;;;;13.63;3.00;;;10.50;99.90;;;;;;5073706;28;20469;-77
2022/12/24 08:40:41;;;;;;;7.53;2.23;;;10.50;99.90;;;;;;5039158;28;20989;-77
2022/12/24 08:43:07;;;;;;;17.83;1.90;;;10.60;99.90;;;;;;5055745;28;20207;-77
2022/12/24 08:45:33;;;;;;;15.57;2.17;;;10.60;99.90;;;;;;5056745;28;20427;-77
2022/12/24 08:47:59;;;;;;;8.50;2.17;;;10.50;99.90;;;;;;5075644;28;20695;-78
2022/12/24 08:50:25;;;;;;;13.47;2.43;;;10.60;99.90;;;;;;5074119;28;20558;-76
2022/12/24 08:52:50;;;;;;;11.80;3.00;;;10.60;99.90;;;;;;5053845;28;20434;-76
2022/12/24 08:55:16;;;;;;;8.47;1.87;;;10.60;99.90;;;;;;5054588;28;20562;-77
2022/12/24 08:57:41;;;;;;;11.13;2.33;;;10.60;99.90;;;;;;5055275;28;20188;-79
2022/12/24 09:00:10;;;;;;;9.63;2.50;;;10.60;99.90;;;;;;5072417;28;20219;-77
2022/12/24 09:02:36;;;;;;;10.63;2.07;;;10.50;99.90;;;;;;5071981;28;20279;-78
2022/12/24 09:05:01;;;;;;;10.23;2.30;;;10.50;99.90;;;;;;5071147;28;20481;-78
2022/12/24 09:07:27;;;;;;;15.77;2.50;;;10.60;99.90;;;;;;5073460;28;20267;-78
2022/12/24 09:09:53;;;;;;;19.70;2.90;;;10.60;99.90;;;;;;5073218;28;20195;-77
2022/12/24 09:12:18;;;;;;;10.80;2.67;;;10.60;99.90;;;;;;5072062;28;20190;-77
2022/12/24 09:14:44;;;;;;;16.97;2.30;;;10.70;99.90;;;;;;5071651;28;20287;-78
2022/12/24 09:17:09;;;;;;;6.80;2.20;;;10.70;99.90;;;;;;5072770;28;20560;-77
2022/12/24 09:19:35;;;;;;;14.40;4.70;;;11.00;99.90;;;;;;5071147;28;20246;-77
2022/12/24 09:22:00;;;;;;;11.90;2.37;;;11.00;99.90;;;;;;5036543;28;20211;-77
2022/12/24 09:24:26;;;;;;;9.60;4.63;;;11.10;99.90;;;;;;5035968;28;20237;-76
2022/12/24 09:26:52;;;;;;;11.50;3.77;;;11.20;99.90;;;;;;5052625;28;20214;-76
2022/12/24 09:29:17;;;;;;;13.63;3.47;;;11.30;99.90;;;;;;5052635;28;20189;-76
2022/12/24 09:31:43;;;;;;;8.97;1.70;;;11.30;99.90;;;;;;5070952;28;20219;-77
2022/12/24 09:34:09;;;;;;;7.47;1.97;;;11.40;99.90;;;;;;5052003;28;20885;-76
2022/12/24 09:36:34;;;;;;;6.80;1.70;;;11.40;99.90;;;;;;5053716;28;20195;-78
2022/12/24 09:39:00;;;;;;;11.33;2.10;;;11.40;99.90;;;;;;5070768;28;20218;-76
2022/12/24 09:41:51;;;;;;;9.20;2.40;;;11.40;99.90;;;;;;5052638;28;20188;-76
2022/12/24 09:44:23;;;;;;;10.10;1.60;;;11.50;99.90;;;;;;5070961;28;20210;-78
2022/12/24 09:46:52;;;;;;;12.90;2.00;;;11.40;99.90;;;;;;5053753;28;20411;-78
2022/12/24 09:49:34;;;;;;;11.43;1.90;;;11.50;99.90;;;;;;5052895;28;20429;-78
2022/12/24 09:52:05;;;;;;;5.87;2.37;;;11.50;99.90;;;;;;5071093;28;20426;-77
2022/12/24 09:54:40;;;;;;;13.20;2.73;;;11.50;99.90;;;;;;5071072;28;20946;-76
2022/12/24 09:57:13;;;;;;;6.73;1.77;;;11.50;99.90;;;;;;5071100;28;20917;-77
2022/12/24 09:59:43;;;;;;;8.73;1.80;;;11.50;99.90;;;;;;5071134;28;20467;-76
2022/12/24 10:02:15;;;;;;;10.40;2.20;;;11.50;99.90;;;;;;5070981;28;20934;-77
2022/12/24 10:04:42;;;;;;;7.97;1.80;;;11.70;99.90;;;;;;5070810;28;20520;-78
2022/12/24 10:07:23;;;;;;;17.77;2.07;;;11.60;99.90;;;;;;5072294;28;20425;-79
2022/12/24 10:10:14;;;;;;;11.60;1.80;;;11.80;99.90;;;;;;5071046;28;21109;-76
2022/12/24 10:12:58;;;;;;;10.47;2.67;;;12.50;99.90;;;;;;5070878;28;20429;-77
2022/12/24 10:15:31;;;;;;;13.20;2.17;;;13.70;99.90;;;;;;5070161;28;20962;-77
2022/12/24 10:18:16;;;;;;;8.30;1.67;;;14.80;99.90;;;;;;5070321;28;20433;-76
2022/12/24 10:20:49;;;;;;;7.43;1.63;;;15.60;99.50;;;;;;5070858;28;20416;-77
2022/12/24 10:23:31;;;;;;;11.40;2.00;;;15.40;97.40;;;;;;5071159;28;20434;-78
2022/12/24 10:26:15;;;;;;;13.70;2.30;;;15.20;97.50;;;;;;5052516;28;21052;-75
2022/12/24 10:28:56;;;;;;;7.60;1.80;;;15.30;97.90;;;;;;5071472;28;20516;-78
2022/12/24 10:31:28;;;;;;;15.60;2.37;;;15.10;96.10;;;;;;5070583;28;20850;-78
2022/12/24 10:33:57;;;;;;;9.10;1.83;;;14.80;95.40;;;;;;5069759;28;20492;-78
2022/12/24 10:36:28;;;;;;;12.93;1.93;;;14.30;97.00;;;;;;5070703;28;20430;-77
2022/12/24 10:38:54;;;;;;;6.87;1.60;;;14.10;97.70;;;;;;5052950;28;20515;-77
2022/12/24 10:41:19;;;;;;;5.97;2.00;;;14.10;98.80;;;;;;5070257;28;20429;-77
2022/12/24 10:43:46;;;;;;;8.93;2.03;;;13.70;98.50;;;;;;5069463;28;20498;-77
2022/12/24 10:46:36;;;;;;;8.33;2.20;;;13.70;99.40;;;;;;5069705;28;20636;-77
2022/12/24 10:49:11;;;;;;;6.77;1.70;;;13.60;99.80;;;;;;5069692;28;20432;-77
2022/12/24 10:51:44;;;;;;;12.03;2.23;;;13.50;99.90;;;;;;5070281;28;20420;-78
2022/12/24 10:54:25;;;;;;;9.03;1.93;;;13.30;99.80;;;;;;5069951;28;20444;-77
2022/12/24 10:56:55;;;;;;;11.00;2.17;;;13.10;99.90;;;;;;5070027;28;20421;-78
2022/12/24 10:59:42;;;;;;;6.37;1.70;;;12.90;99.90;;;;;;5069557;28;20472;-77
2022/12/24 11:02:33;;;;;;;17.03;2.07;;;12.80;99.90;;;;;;5069951;28;20423;-79
2022/12/24 11:05:02;;;;;;;9.43;1.80;;;12.80;99.90;;;;;;5069976;28;20486;-77
2022/12/24 11:07:29;;;;;;;9.73;2.43;;;12.80;99.90;;;;;;5052341;28;20444;-77
2022/12/24 11:09:58;;;;;;;5.87;2.00;;;12.80;99.90;;;;;;5052335;28;20921;-78
2022/12/24 11:12:44;;;;;;;10.77;2.00;;;12.70;99.90;;;;;;5069800;28;20431;-77
2022/12/24 11:15:23;;;;;;;9.17;1.90;;;12.60;99.90;;;;;;5069494;28;20424;-77
2022/12/24 11:17:59;;;;;;;11.77;2.20;;;12.50;99.90;;;;;;5051604;28;20486;-77
2022/12/24 11:20:30;;;;;;;13.00;2.60;;;12.40;99.90;;;;;;5051763;28;20461;-77
2022/12/24 11:22:56;;;;;;;10.43;2.40;;;12.40;99.90;;;;;;5069305;28;20451;-78
2022/12/24 11:25:27;;;;;;;9.40;2.27;;;12.40;99.90;;;;;;5035024;28;20456;-77
2022/12/24 11:27:54;;;;;;;10.70;2.20;;;12.10;99.90;;;;;;5053238;28;20482;-78
2022/12/24 11:30:27;;;;;;;9.43;2.30;;;12.30;99.90;;;;;;5055213;28;20925;-77
2022/12/24 11:32:59;;;;;;;16.90;2.60;;;12.30;99.90;;;;;;5072948;28;20454;-78
2022/12/24 11:35:25;;;;;;;10.40;2.17;;;12.20;99.90;;;;;;5054788;28;20458;-76
2022/12/24 11:38:03;;;;;;;13.67;2.87;;;12.30;99.90;;;;;;5055324;28;20427;-78
2022/12/24 11:40:44;;;;;;;10.97;2.23;;;12.40;99.90;;;;;;5072494;28;20414;-78
2022/12/24 11:43:19;;;;;;;144.53;8.83;;;12.40;99.90;;;;;;5054319;28;20488;-77
2022/12/24 11:45:56;;;;;;;7.37;2.03;;;12.40;99.90;;;;;;5072581;28;20425;-77
2022/12/24 11:48:30;;;;;;;6.93;1.93;;;12.50;99.90;;;;;;5073364;28;20412;-78
2022/12/24 11:51:01;;;;;;;14.87;3.13;;;12.60;99.90;;;;;;5074619;28;20415;-79
2022/12/24 11:54:06;;;;;;;8.60;2.03;;;12.70;99.90;;;;;;5072186;28;20465;-77
2022/12/24 11:56:48;;;;;;;7.33;2.03;;;12.80;99.90;;;;;;5072112;28;20426;-77
2022/12/24 11:59:17;;;;;;;7.23;2.13;;;12.90;99.90;;;;;;5071997;28;20491;-77
2022/12/24 12:01:57;;;;;;;5.50;2.23;;;12.90;99.90;;;;;;5054287;28;20829;-78
2022/12/24 12:04:33;;;;;;;11.77;2.80;;;12.90;99.90;;;;;;5072049;28;20423;-78
2022/12/24 12:07:30;;;;;;;7.50;2.13;;;12.90;99.90;;;;;;5072977;28;20415;-78
2022/12/24 12:10:16;;;;;;;9.00;2.40;;;12.90;99.90;;;;;;5054053;28;20433;-77
2022/12/24 12:12:46;;;;;;;10.40;2.80;;;12.80;99.90;;;;;;5072160;28;20446;-77
2022/12/24 12:15:17;;;;;;;12.60;3.07;;;12.80;99.90;;;;;;5072410;28;20924;-77
2022/12/24 12:18:06;;;;;;;9.70;1.77;;;12.70;99.90;;;;;;5071944;28;20508;-78
2022/12/24 12:20:40;;;;;;;11.63;2.57;;;12.90;99.90;;;;;;5072048;28;20920;-78
2022/12/24 12:23:39;;;;;;;9.60;2.10;;;13.00;99.90;;;;;;5071792;28;20446;-79
2022/12/24 12:26:27;;;;;;;7.73;2.20;;;12.90;99.90;;;;;;5067841;28;20459;-80
2022/12/24 12:28:59;;;;;;;17.30;2.83;;;12.80;99.90;;;;;;5071980;28;20414;-78
2022/12/24 12:31:39;;;;;;;10.20;3.03;;;12.80;99.90;;;;;;5072093;28;20430;-78
2022/12/24 12:34:31;;;;;;;19.17;2.80;;;12.70;99.90;;;;;;5072172;28;20988;-77
2022/12/24 12:37:04;;;;;;;13.40;3.00;;;12.70;99.90;;;;;;5053790;28;20424;-78
2022/12/24 12:39:30;;;;;;;11.80;2.17;;;12.80;99.90;;;;;;5071063;28;20512;-77
2022/12/24 12:42:19;;;;;;;18.10;3.20;;;12.80;99.90;;;;;;5053735;28;20426;-78
2022/12/24 12:45:06;;;;;;;18.33;2.53;;;12.80;99.90;;;;;;5060265;28;20451;-76
2022/12/24 12:47:58;;;;;;;11.97;2.70;;;12.80;99.90;;;;;;5053529;28;20423;-78
2022/12/24 12:50:35;;;;;;;11.50;2.60;;;12.80;99.90;;;;;;5071563;28;20414;-77
2022/12/24 12:53:35;;;;;;;8.63;1.93;;;12.80;99.90;;;;;;5071060;28;20428;-77
2022/12/24 12:56:10;;;;;;;11.50;2.07;;;12.90;99.90;;;;;;5053293;28;20422;-78
2022/12/24 12:58:47;;;;;;;8.13;2.03;;;12.80;99.90;;;;;;5071421;28;20466;-78
2022/12/24 13:01:22;;;;;;;9.10;2.10;;;12.80;99.90;;;;;;5053363;28;20513;-77
2022/12/24 13:04:25;;;;;;;11.30;1.90;;;12.80;99.90;;;;;;5053633;28;20931;-77
2022/12/24 13:07:09;;;;;;;8.20;1.97;;;12.70;99.90;;;;;;5071093;28;20480;-77